sensor_id;sensor_type;location;lat;lon;timestamp;temperature;humidity
23114;DHT22;11726;50.122;8.832;2022-08-25T00:01:47;22.30;99.10
23114;DHT22;11726;50.122;8.832;2022-08-25T00:04:15;22.20;99.60
23114;DHT22;11726;50.122;8.832;2022-08-25T00:06:44;22.20;99.90
23114;DHT22;11726;50.122;8.832;2022-08-25T00:09:13;22.10;99.90
23114;DHT22;11726;50.122;8.832;2022-08-25T00:11:41;22.00;99.90
23114;DHT22;11726;50.122;8.832;2022-08-25T00:14:12;21.90;99.90
23114;DHT22;11726;50.122;8.832;2022-08-25T00:16:39;21.90;99.90
23114;DHT22;11726;50.122;8.832;2022-08-25T00:19:10;21.80;99.90
23114;DHT22;11726;50.122;8.832;2022-08-25T00:21:37;21.70;99.90
23114;DHT22;11726;50.122;8.832;2022-08-25T00:24:07;21.70;99.90
23114;DHT22;11726;50.122;8.832;2022-08-25T00:26:41;21.70;99.90
23114;DHT22;11726;50.122;8.832;2022-08-25T00:29:12;21.70;99.90
23114;DHT22;11726;50.122;8.832;2022-08-25T00:31:39;21.60;99.90
23114;DHT22;11726;50.122;8.832;2022-08-25T00:34:09;21.60;99.90
23114;DHT22;11726;50.122;8.832;2022-08-25T00:36:36;21.70;99.90
23114;DHT22;11726;50.122;8.832;2022-08-25T00:39:05;21.60;99.90
23114;DHT22;11726;50.122;8.832;2022-08-25T00:41:33;21.60;99.90
23114;DHT22;11726;50.122;8.832;2022-08-25T00:44:03;21.50;99.90
23114;DHT22;11726;50.122;8.832;2022-08-25T00:46:36;21.50;99.90
23114;DHT22;11726;50.122;8.832;2022-08-25T00:49:13;21.60;99.90
23114;DHT22;11726;50.122;8.832;2022-08-25T00:51:59;21.40;99.90
23114;DHT22;11726;50.122;8.832;2022-08-25T00:54:34;21.40;99.90
23114;DHT22;11726;50.122;8.832;2022-08-25T00:57:03;21.40;99.90
23114;DHT22;11726;50.122;8.832;2022-08-25T00:59:31;21.50;99.90
23114;DHT22;11726;50.122;8.832;2022-08-25T01:01:58;21.40;99.90
23114;DHT22;11726;50.122;8.832;2022-08-25T01:04:25;21.40;99.90
23114;DHT22;11726;50.122;8.832;2022-08-25T01:06:52;21.40;99.90
23114;DHT22;11726;50.122;8.832;2022-08-25T01:09:21;21.30;99.90
23114;DHT22;11726;50.122;8.832;2022-08-25T01:11:48;21.20;99.90
23114;DHT22;11726;50.122;8.832;2022-08-25T01:14:17;21.20;99.90
23114;DHT22;11726;50.122;8.832;2022-08-25T01:16:45;21.10;99.90
23114;DHT22;11726;50.122;8.832;2022-08-25T01:19:16;21.10;99.90
23114;DHT22;11726;50.122;8.832;2022-08-25T01:21:46;21.00;99.90
23114;DHT22;11726;50.122;8.832;2022-08-25T01:27:03;20.80;99.90
23114;DHT22;11726;50.122;8.832;2022-08-25T01:29:30;20.90;99.90
23114;DHT22;11726;50.122;8.832;2022-08-25T01:32:00;20.90;99.90
23114;DHT22;11726;50.122;8.832;2022-08-25T01:34:30;20.80;99.90
23114;DHT22;11726;50.122;8.832;2022-08-25T01:36:58;20.70;99.90
23114;DHT22;11726;50.122;8.832;2022-08-25T01:39:27;20.80;99.90
23114;DHT22;11726;50.122;8.832;2022-08-25T01:44:24;20.60;99.90
23114;DHT22;11726;50.122;8.832;2022-08-25T01:46:52;20.60;99.90
23114;DHT22;11726;50.122;8.832;2022-08-25T01:49:18;20.60;99.90
23114;DHT22;11726;50.122;8.832;2022-08-25T01:52:06;20.60;99.90
23114;DHT22;11726;50.122;8.832;2022-08-25T01:54:32;20.60;99.90
23114;DHT22;11726;50.122;8.832;2022-08-25T01:56:59;20.60;99.90
23114;DHT22;11726;50.122;8.832;2022-08-25T01:59:27;20.50;99.90
23114;DHT22;11726;50.122;8.832;2022-08-25T02:01:54;20.60;99.90
23114;DHT22;11726;50.122;8.832;2022-08-25T02:04:28;20.50;99.90
23114;DHT22;11726;50.122;8.832;2022-08-25T02:07:03;20.50;99.90
23114;DHT22;11726;50.122;8.832;2022-08-25T02:09:30;20.50;99.90
23114;DHT22;11726;50.122;8.832;2022-08-25T02:11:57;20.50;99.90
23114;DHT22;11726;50.122;8.832;2022-08-25T02:14:24;20.40;99.90
23114;DHT22;11726;50.122;8.832;2022-08-25T02:16:52;20.30;99.90
23114;DHT22;11726;50.122;8.832;2022-08-25T02:19:21;20.30;99.90
23114;DHT22;11726;50.122;8.832;2022-08-25T02:21:50;20.20;99.90
23114;DHT22;11726;50.122;8.832;2022-08-25T02:24:17;20.10;99.90
23114;DHT22;11726;50.122;8.832;2022-08-25T02:26:44;20.10;99.90
23114;DHT22;11726;50.122;8.832;2022-08-25T02:29:10;20.20;99.90
23114;DHT22;11726;50.122;8.832;2022-08-25T02:31:38;20.20;99.90
23114;DHT22;11726;50.122;8.832;2022-08-25T02:34:06;20.20;99.90
23114;DHT22;11726;50.122;8.832;2022-08-25T02:36:34;20.00;99.90
23114;DHT22;11726;50.122;8.832;2022-08-25T02:39:02;20.10;99.90
23114;DHT22;11726;50.122;8.832;2022-08-25T02:41:29;20.10;99.90
23114;DHT22;11726;50.122;8.832;2022-08-25T02:44:01;20.10;99.90
23114;DHT22;11726;50.122;8.832;2022-08-25T02:46:29;20.00;99.90
23114;DHT22;11726;50.122;8.832;2022-08-25T02:48:57;20.00;99.90
23114;DHT22;11726;50.122;8.832;2022-08-25T02:51:25;20.00;99.90
23114;DHT22;11726;50.122;8.832;2022-08-25T02:53:59;20.10;99.90
23114;DHT22;11726;50.122;8.832;2022-08-25T02:56:28;20.00;99.90
23114;DHT22;11726;50.122;8.832;2022-08-25T02:58:55;19.90;99.90
23114;DHT22;11726;50.122;8.832;2022-08-25T03:01:22;19.90;99.90
23114;DHT22;11726;50.122;8.832;2022-08-25T03:03:55;19.80;99.90
23114;DHT22;11726;50.122;8.832;2022-08-25T03:06:22;19.70;99.90
23114;DHT22;11726;50.122;8.832;2022-08-25T03:08:50;19.70;99.90
23114;DHT22;11726;50.122;8.832;2022-08-25T03:11:17;19.70;99.90
23114;DHT22;11726;50.122;8.832;2022-08-25T03:13:44;19.70;99.90
23114;DHT22;11726;50.122;8.832;2022-08-25T03:16:10;19.60;99.90
23114;DHT22;11726;50.122;8.832;2022-08-25T03:18:39;19.60;99.90
23114;DHT22;11726;50.122;8.832;2022-08-25T03:21:08;19.60;99.90
23114;DHT22;11726;50.122;8.832;2022-08-25T03:23:37;19.60;99.90
23114;DHT22;11726;50.122;8.832;2022-08-25T03:26:04;19.60;99.90
23114;DHT22;11726;50.122;8.832;2022-08-25T03:28:49;19.40;99.90
23114;DHT22;11726;50.122;8.832;2022-08-25T03:31:16;19.70;99.90
23114;DHT22;11726;50.122;8.832;2022-08-25T03:33:42;19.80;99.90
23114;DHT22;11726;50.122;8.832;2022-08-25T03:36:09;19.70;99.90
23114;DHT22;11726;50.122;8.832;2022-08-25T03:38:39;19.50;99.90
23114;DHT22;11726;50.122;8.832;2022-08-25T03:41:17;19.50;99.90
23114;DHT22;11726;50.122;8.832;2022-08-25T03:43:46;19.40;99.90
23114;DHT22;11726;50.122;8.832;2022-08-25T03:46:23;19.40;99.90
23114;DHT22;11726;50.122;8.832;2022-08-25T03:48:52;19.40;99.90
23114;DHT22;11726;50.122;8.832;2022-08-25T03:51:21;19.40;99.90
23114;DHT22;11726;50.122;8.832;2022-08-25T03:53:48;19.40;99.90
23114;DHT22;11726;50.122;8.832;2022-08-25T03:56:16;19.30;99.90
23114;DHT22;11726;50.122;8.832;2022-08-25T03:58:44;19.30;99.90
23114;DHT22;11726;50.122;8.832;2022-08-25T04:01:11;19.10;99.90
23114;DHT22;11726;50.122;8.832;2022-08-25T04:03:38;19.10;99.90
23114;DHT22;11726;50.122;8.832;2022-08-25T04:06:06;19.30;99.90
23114;DHT22;11726;50.122;8.832;2022-08-25T04:08:36;19.20;99.90
23114;DHT22;11726;50.122;8.832;2022-08-25T04:11:12;19.20;99.90
23114;DHT22;11726;50.122;8.832;2022-08-25T04:13:39;19.30;99.90
23114;DHT22;11726;50.122;8.832;2022-08-25T04:16:16;19.30;99.90
23114;DHT22;11726;50.122;8.832;2022-08-25T04:18:44;19.30;99.90
23114;DHT22;11726;50.122;8.832;2022-08-25T04:21:12;19.20;99.90
23114;DHT22;11726;50.122;8.832;2022-08-25T04:23:41;19.30;99.90
23114;DHT22;11726;50.122;8.832;2022-08-25T04:26:10;19.30;99.90
23114;DHT22;11726;50.122;8.832;2022-08-25T04:28:37;19.40;99.90
23114;DHT22;11726;50.122;8.832;2022-08-25T04:31:08;19.40;99.90
23114;DHT22;11726;50.122;8.832;2022-08-25T04:33:37;19.50;99.90
23114;DHT22;11726;50.122;8.832;2022-08-25T04:36:05;19.60;99.90
23114;DHT22;11726;50.122;8.832;2022-08-25T04:38:39;19.60;99.90
23114;DHT22;11726;50.122;8.832;2022-08-25T04:41:07;19.60;99.90
23114;DHT22;11726;50.122;8.832;2022-08-25T04:43:37;19.60;99.90
23114;DHT22;11726;50.122;8.832;2022-08-25T04:46:10;19.50;99.90
23114;DHT22;11726;50.122;8.832;2022-08-25T04:48:38;19.40;99.90
23114;DHT22;11726;50.122;8.832;2022-08-25T04:51:09;19.40;99.90
23114;DHT22;11726;50.122;8.832;2022-08-25T04:53:37;19.60;99.90
23114;DHT22;11726;50.122;8.832;2022-08-25T04:56:15;19.70;99.90
23114;DHT22;11726;50.122;8.832;2022-08-25T04:58:43;19.80;99.90
23114;DHT22;11726;50.122;8.832;2022-08-25T05:01:15;19.80;99.90
23114;DHT22;11726;50.122;8.832;2022-08-25T05:03:44;19.80;99.90
23114;DHT22;11726;50.122;8.832;2022-08-25T05:06:11;19.80;99.90
23114;DHT22;11726;50.122;8.832;2022-08-25T05:08:41;19.80;99.90
23114;DHT22;11726;50.122;8.832;2022-08-25T05:11:13;19.80;99.90
23114;DHT22;11726;50.122;8.832;2022-08-25T05:13:41;19.90;99.90
23114;DHT22;11726;50.122;8.832;2022-08-25T05:16:12;20.00;99.90
23114;DHT22;11726;50.122;8.832;2022-08-25T05:18:38;20.00;99.90
23114;DHT22;11726;50.122;8.832;2022-08-25T05:21:08;20.00;99.90
23114;DHT22;11726;50.122;8.832;2022-08-25T05:23:36;20.00;99.90
23114;DHT22;11726;50.122;8.832;2022-08-25T05:26:10;20.00;99.90
23114;DHT22;11726;50.122;8.832;2022-08-25T05:28:39;20.00;99.90
23114;DHT22;11726;50.122;8.832;2022-08-25T05:31:11;20.00;99.90
23114;DHT22;11726;50.122;8.832;2022-08-25T05:33:38;20.10;99.90
23114;DHT22;11726;50.122;8.832;2022-08-25T05:36:07;20.10;99.90
23114;DHT22;11726;50.122;8.832;2022-08-25T05:38:35;20.20;99.90
23114;DHT22;11726;50.122;8.832;2022-08-25T05:41:05;20.10;99.90
23114;DHT22;11726;50.122;8.832;2022-08-25T05:43:32;20.20;99.90
23114;DHT22;11726;50.122;8.832;2022-08-25T05:45:59;20.20;99.90
23114;DHT22;11726;50.122;8.832;2022-08-25T05:48:26;20.30;99.90
23114;DHT22;11726;50.122;8.832;2022-08-25T05:50:55;20.40;99.90
23114;DHT22;11726;50.122;8.832;2022-08-25T05:53:22;20.30;99.90
23114;DHT22;11726;50.122;8.832;2022-08-25T05:55:50;20.50;99.90
23114;DHT22;11726;50.122;8.832;2022-08-25T05:58:17;20.50;99.90
23114;DHT22;11726;50.122;8.832;2022-08-25T06:00:44;20.60;99.90
23114;DHT22;11726;50.122;8.832;2022-08-25T06:03:15;20.50;99.90
23114;DHT22;11726;50.122;8.832;2022-08-25T06:05:42;20.60;99.90
23114;DHT22;11726;50.122;8.832;2022-08-25T06:08:09;20.70;99.90
23114;DHT22;11726;50.122;8.832;2022-08-25T06:10:36;20.60;99.90
23114;DHT22;11726;50.122;8.832;2022-08-25T06:13:03;20.80;99.90
23114;DHT22;11726;50.122;8.832;2022-08-25T06:15:34;20.90;99.90
23114;DHT22;11726;50.122;8.832;2022-08-25T06:18:01;20.90;99.90
23114;DHT22;11726;50.122;8.832;2022-08-25T06:20:30;21.00;99.90
23114;DHT22;11726;50.122;8.832;2022-08-25T06:22:57;21.10;99.90
23114;DHT22;11726;50.122;8.832;2022-08-25T06:25:25;21.20;99.90
23114;DHT22;11726;50.122;8.832;2022-08-25T06:27:53;21.30;99.90
23114;DHT22;11726;50.122;8.832;2022-08-25T06:30:21;21.40;99.90
23114;DHT22;11726;50.122;8.832;2022-08-25T06:32:54;21.40;99.90
23114;DHT22;11726;50.122;8.832;2022-08-25T06:35:20;21.60;99.90
23114;DHT22;11726;50.122;8.832;2022-08-25T06:37:48;21.60;99.90
23114;DHT22;11726;50.122;8.832;2022-08-25T06:40:14;21.80;99.90
23114;DHT22;11726;50.122;8.832;2022-08-25T06:42:45;21.90;99.90
23114;DHT22;11726;50.122;8.832;2022-08-25T06:45:13;21.90;99.90
23114;DHT22;11726;50.122;8.832;2022-08-25T06:47:40;22.00;99.90
23114;DHT22;11726;50.122;8.832;2022-08-25T06:52:51;22.30;99.90
23114;DHT22;11726;50.122;8.832;2022-08-25T06:55:18;22.40;99.90
23114;DHT22;11726;50.122;8.832;2022-08-25T06:57:45;22.40;99.90
23114;DHT22;11726;50.122;8.832;2022-08-25T07:00:12;22.60;99.90
23114;DHT22;11726;50.122;8.832;2022-08-25T07:02:39;22.70;99.90
23114;DHT22;11726;50.122;8.832;2022-08-25T07:05:06;22.80;99.90
23114;DHT22;11726;50.122;8.832;2022-08-25T07:07:36;22.90;99.90
23114;DHT22;11726;50.122;8.832;2022-08-25T07:10:10;23.00;99.90
23114;DHT22;11726;50.122;8.832;2022-08-25T07:12:37;23.10;99.90
23114;DHT22;11726;50.122;8.832;2022-08-25T07:15:04;23.10;99.90
23114;DHT22;11726;50.122;8.832;2022-08-25T07:17:47;23.20;99.90
23114;DHT22;11726;50.122;8.832;2022-08-25T07:20:15;23.40;99.90
23114;DHT22;11726;50.122;8.832;2022-08-25T07:22:44;23.40;99.90
23114;DHT22;11726;50.122;8.832;2022-08-25T07:25:11;23.40;99.90
23114;DHT22;11726;50.122;8.832;2022-08-25T07:27:38;23.50;99.90
23114;DHT22;11726;50.122;8.832;2022-08-25T07:30:08;23.50;99.90
23114;DHT22;11726;50.122;8.832;2022-08-25T07:32:37;23.70;99.90
23114;DHT22;11726;50.122;8.832;2022-08-25T07:35:07;24.00;99.90
23114;DHT22;11726;50.122;8.832;2022-08-25T07:37:48;24.10;99.90
23114;DHT22;11726;50.122;8.832;2022-08-25T07:40:21;24.10;99.90
23114;DHT22;11726;50.122;8.832;2022-08-25T07:42:50;24.30;99.90
23114;DHT22;11726;50.122;8.832;2022-08-25T07:45:18;24.40;99.90
23114;DHT22;11726;50.122;8.832;2022-08-25T07:47:46;24.50;99.90
23114;DHT22;11726;50.122;8.832;2022-08-25T07:50:13;24.60;99.90
23114;DHT22;11726;50.122;8.832;2022-08-25T07:52:40;24.60;99.90
23114;DHT22;11726;50.122;8.832;2022-08-25T07:55:07;24.50;99.90
23114;DHT22;11726;50.122;8.832;2022-08-25T07:57:38;24.50;99.90
23114;DHT22;11726;50.122;8.832;2022-08-25T08:00:06;24.50;99.90
23114;DHT22;11726;50.122;8.832;2022-08-25T08:02:37;24.70;99.90
23114;DHT22;11726;50.122;8.832;2022-08-25T08:05:05;24.90;99.90
23114;DHT22;11726;50.122;8.832;2022-08-25T08:07:35;25.20;99.90
23114;DHT22;11726;50.122;8.832;2022-08-25T08:10:11;25.40;99.90
23114;DHT22;11726;50.122;8.832;2022-08-25T08:12:58;25.40;99.90
23114;DHT22;11726;50.122;8.832;2022-08-25T08:15:25;25.40;99.90
23114;DHT22;11726;50.122;8.832;2022-08-25T08:17:56;25.60;99.90
23114;DHT22;11726;50.122;8.832;2022-08-25T08:20:26;25.60;99.90
23114;DHT22;11726;50.122;8.832;2022-08-25T08:22:54;25.60;99.90
23114;DHT22;11726;50.122;8.832;2022-08-25T08:25:20;25.70;99.90
23114;DHT22;11726;50.122;8.832;2022-08-25T08:27:53;26.00;99.90
23114;DHT22;11726;50.122;8.832;2022-08-25T08:30:22;25.90;99.90
23114;DHT22;11726;50.122;8.832;2022-08-25T08:32:52;25.80;99.90
23114;DHT22;11726;50.122;8.832;2022-08-25T08:35:35;25.80;99.90
23114;DHT22;11726;50.122;8.832;2022-08-25T08:38:03;25.90;99.90
23114;DHT22;11726;50.122;8.832;2022-08-25T08:40:46;26.00;99.90
23114;DHT22;11726;50.122;8.832;2022-08-25T08:43:42;26.20;99.90
23114;DHT22;11726;50.122;8.832;2022-08-25T08:46:11;26.40;99.90
23114;DHT22;11726;50.122;8.832;2022-08-25T08:48:48;26.40;99.90
23114;DHT22;11726;50.122;8.832;2022-08-25T08:51:32;26.40;99.90
23114;DHT22;11726;50.122;8.832;2022-08-25T08:54:18;26.80;99.90
23114;DHT22;11726;50.122;8.832;2022-08-25T08:56:51;27.20;99.90
23114;DHT22;11726;50.122;8.832;2022-08-25T08:59:25;27.00;99.90
23114;DHT22;11726;50.122;8.832;2022-08-25T09:02:00;26.90;99.90
23114;DHT22;11726;50.122;8.832;2022-08-25T09:04:34;27.00;99.90
23114;DHT22;11726;50.122;8.832;2022-08-25T09:07:09;27.10;99.90
23114;DHT22;11726;50.122;8.832;2022-08-25T09:09:40;27.20;99.90
23114;DHT22;11726;50.122;8.832;2022-08-25T09:21:15;27.50;99.90
23114;DHT22;11726;50.122;8.832;2022-08-25T09:27:05;27.30;99.90
23114;DHT22;11726;50.122;8.832;2022-08-25T09:30:00;27.70;99.90
23114;DHT22;11726;50.122;8.832;2022-08-25T09:32:34;27.70;99.90
23114;DHT22;11726;50.122;8.832;2022-08-25T09:35:07;27.80;98.90
23114;DHT22;11726;50.122;8.832;2022-08-25T09:37:37;28.00;99.20
23114;DHT22;11726;50.122;8.832;2022-08-25T09:40:05;28.10;98.90
23114;DHT22;11726;50.122;8.832;2022-08-25T09:42:47;27.80;98.80
23114;DHT22;11726;50.122;8.832;2022-08-25T09:45:17;27.70;99.30
23114;DHT22;11726;50.122;8.832;2022-08-25T09:47:55;27.80;99.10
23114;DHT22;11726;50.122;8.832;2022-08-25T09:50:22;27.70;99.10
23114;DHT22;11726;50.122;8.832;2022-08-25T09:52:49;27.80;98.90
23114;DHT22;11726;50.122;8.832;2022-08-25T09:55:26;27.70;99.20
23114;DHT22;11726;50.122;8.832;2022-08-25T09:57:58;27.60;99.30
23114;DHT22;11726;50.122;8.832;2022-08-25T10:00:31;27.40;99.90
23114;DHT22;11726;50.122;8.832;2022-08-25T10:05:33;27.40;99.40
23114;DHT22;11726;50.122;8.832;2022-08-25T10:08:21;27.40;99.10
23114;DHT22;11726;50.122;8.832;2022-08-25T10:10:54;27.30;99.00
23114;DHT22;11726;50.122;8.832;2022-08-25T10:13:39;27.40;99.90
23114;DHT22;11726;50.122;8.832;2022-08-25T10:16:21;27.50;99.40
23114;DHT22;11726;50.122;8.832;2022-08-25T10:19:12;27.60;98.50
23114;DHT22;11726;50.122;8.832;2022-08-25T10:21:41;27.60;97.80
23114;DHT22;11726;50.122;8.832;2022-08-25T10:24:10;27.70;97.80
23114;DHT22;11726;50.122;8.832;2022-08-25T10:29:46;28.20;96.70
23114;DHT22;11726;50.122;8.832;2022-08-25T10:35:11;29.10;95.20
23114;DHT22;11726;50.122;8.832;2022-08-25T10:37:49;29.00;94.80
23114;DHT22;11726;50.122;8.832;2022-08-25T10:43:09;28.90;93.80
23114;DHT22;11726;50.122;8.832;2022-08-25T10:45:47;28.90;93.90
23114;DHT22;11726;50.122;8.832;2022-08-25T10:54:18;28.80;92.40
23114;DHT22;11726;50.122;8.832;2022-08-25T11:05:18;30.00;88.10
23114;DHT22;11726;50.122;8.832;2022-08-25T11:08:14;30.30;85.40
23114;DHT22;11726;50.122;8.832;2022-08-25T11:11:04;30.60;85.70
23114;DHT22;11726;50.122;8.832;2022-08-25T11:13:54;30.80;83.10
23114;DHT22;11726;50.122;8.832;2022-08-25T11:16:46;31.30;79.30
23114;DHT22;11726;50.122;8.832;2022-08-25T11:19:29;31.20;77.90
23114;DHT22;11726;50.122;8.832;2022-08-25T11:27:37;30.80;79.00
23114;DHT22;11726;50.122;8.832;2022-08-25T11:30:10;30.90;78.90
23114;DHT22;11726;50.122;8.832;2022-08-25T11:32:38;30.90;77.70
23114;DHT22;11726;50.122;8.832;2022-08-25T11:35:09;31.00;78.00
23114;DHT22;11726;50.122;8.832;2022-08-25T11:37:52;31.10;78.40
23114;DHT22;11726;50.122;8.832;2022-08-25T11:46:40;31.80;76.40
23114;DHT22;11726;50.122;8.832;2022-08-25T11:57:51;31.60;77.70
23114;DHT22;11726;50.122;8.832;2022-08-25T12:02:47;31.50;76.50
23114;DHT22;11726;50.122;8.832;2022-08-25T12:08:05;31.70;76.10
23114;DHT22;11726;50.122;8.832;2022-08-25T12:10:55;32.00;73.10
23114;DHT22;11726;50.122;8.832;2022-08-25T12:13:47;31.90;70.60
23114;DHT22;11726;50.122;8.832;2022-08-25T12:25:02;32.40;65.70
23114;DHT22;11726;50.122;8.832;2022-08-25T12:30:28;31.80;65.50
23114;DHT22;11726;50.122;8.832;2022-08-25T12:33:34;31.10;66.70
23114;DHT22;11726;50.122;8.832;2022-08-25T12:36:06;31.60;68.30
23114;DHT22;11726;50.122;8.832;2022-08-25T12:38:48;32.00;66.60
23114;DHT22;11726;50.122;8.832;2022-08-25T12:41:23;31.60;66.80
23114;DHT22;11726;50.122;8.832;2022-08-25T12:44:00;31.10;68.80
23114;DHT22;11726;50.122;8.832;2022-08-25T12:46:37;30.80;70.00
23114;DHT22;11726;50.122;8.832;2022-08-25T12:49:10;30.70;70.10
23114;DHT22;11726;50.122;8.832;2022-08-25T12:51:55;30.50;70.70
23114;DHT22;11726;50.122;8.832;2022-08-25T12:54:43;30.30;70.80
23114;DHT22;11726;50.122;8.832;2022-08-25T12:57:39;30.30;70.60
23114;DHT22;11726;50.122;8.832;2022-08-25T13:00:19;30.30;71.30
23114;DHT22;11726;50.122;8.832;2022-08-25T13:03:24;30.70;69.40
23114;DHT22;11726;50.122;8.832;2022-08-25T13:09:15;31.40;68.70
23114;DHT22;11726;50.122;8.832;2022-08-25T13:11:48;32.30;65.50
23114;DHT22;11726;50.122;8.832;2022-08-25T13:14:36;32.80;63.60
23114;DHT22;11726;50.122;8.832;2022-08-25T13:17:05;32.80;63.50
23114;DHT22;11726;50.122;8.832;2022-08-25T13:19:36;33.00;60.80
23114;DHT22;11726;50.122;8.832;2022-08-25T13:22:11;32.50;60.80
23114;DHT22;11726;50.122;8.832;2022-08-25T13:24:43;32.00;62.50
23114;DHT22;11726;50.122;8.832;2022-08-25T13:27:26;32.50;61.30
23114;DHT22;11726;50.122;8.832;2022-08-25T13:29:57;33.30;59.40
23114;DHT22;11726;50.122;8.832;2022-08-25T13:32:34;33.80;58.40
23114;DHT22;11726;50.122;8.832;2022-08-25T13:35:17;33.90;57.30
23114;DHT22;11726;50.122;8.832;2022-08-25T13:37:46;34.40;57.30
23114;DHT22;11726;50.122;8.832;2022-08-25T13:40:25;34.30;57.60
23114;DHT22;11726;50.122;8.832;2022-08-25T13:43:05;34.30;57.00
23114;DHT22;11726;50.122;8.832;2022-08-25T13:45:40;34.50;55.70
23114;DHT22;11726;50.122;8.832;2022-08-25T13:48:09;34.80;55.70
23114;DHT22;11726;50.122;8.832;2022-08-25T13:50:51;35.10;54.20
23114;DHT22;11726;50.122;8.832;2022-08-25T13:53:23;35.30;52.80
23114;DHT22;11726;50.122;8.832;2022-08-25T13:55:57;35.10;52.50
23114;DHT22;11726;50.122;8.832;2022-08-25T13:58:26;34.80;52.90
23114;DHT22;11726;50.122;8.832;2022-08-25T14:01:23;34.20;53.30
23114;DHT22;11726;50.122;8.832;2022-08-25T14:04:27;33.40;55.20
23114;DHT22;11726;50.122;8.832;2022-08-25T14:12:31;32.40;57.90
23114;DHT22;11726;50.122;8.832;2022-08-25T14:15:01;32.40;58.10
23114;DHT22;11726;50.122;8.832;2022-08-25T14:17:28;32.70;57.30
23114;DHT22;11726;50.122;8.832;2022-08-25T14:20:17;33.10;56.50
23114;DHT22;11726;50.122;8.832;2022-08-25T14:22:44;33.70;56.00
23114;DHT22;11726;50.122;8.832;2022-08-25T14:25:11;33.50;55.30
23114;DHT22;11726;50.122;8.832;2022-08-25T14:27:42;33.30;56.10
23114;DHT22;11726;50.122;8.832;2022-08-25T14:30:33;32.90;56.40
23114;DHT22;11726;50.122;8.832;2022-08-25T14:33:01;32.50;57.60
23114;DHT22;11726;50.122;8.832;2022-08-25T14:35:29;32.40;58.10
23114;DHT22;11726;50.122;8.832;2022-08-25T14:37:57;32.20;58.10
23114;DHT22;11726;50.122;8.832;2022-08-25T14:40:23;31.90;59.50
23114;DHT22;11726;50.122;8.832;2022-08-25T14:42:50;31.70;60.00
23114;DHT22;11726;50.122;8.832;2022-08-25T14:45:17;31.40;60.70
23114;DHT22;11726;50.122;8.832;2022-08-25T14:47:45;31.30;60.40
23114;DHT22;11726;50.122;8.832;2022-08-25T14:50:16;31.40;59.70
23114;DHT22;11726;50.122;8.832;2022-08-25T14:52:46;31.40;59.70
23114;DHT22;11726;50.122;8.832;2022-08-25T14:55:17;31.60;59.60
23114;DHT22;11726;50.122;8.832;2022-08-25T14:57:58;32.70;57.80
23114;DHT22;11726;50.122;8.832;2022-08-25T15:00:25;33.00;56.40
23114;DHT22;11726;50.122;8.832;2022-08-25T15:02:53;33.10;56.80
23114;DHT22;11726;50.122;8.832;2022-08-25T15:05:24;33.00;56.40
23114;DHT22;11726;50.122;8.832;2022-08-25T15:07:54;32.40;57.00
23114;DHT22;11726;50.122;8.832;2022-08-25T15:10:40;32.10;58.00
23114;DHT22;11726;50.122;8.832;2022-08-25T15:13:09;32.20;58.00
23114;DHT22;11726;50.122;8.832;2022-08-25T15:15:39;32.90;57.70
23114;DHT22;11726;50.122;8.832;2022-08-25T15:18:19;33.60;55.90
23114;DHT22;11726;50.122;8.832;2022-08-25T15:20:46;34.40;54.60
23114;DHT22;11726;50.122;8.832;2022-08-25T15:23:16;35.00;52.90
23114;DHT22;11726;50.122;8.832;2022-08-25T15:25:45;34.80;52.70
23114;DHT22;11726;50.122;8.832;2022-08-25T15:28:14;35.10;52.70
23114;DHT22;11726;50.122;8.832;2022-08-25T15:30:43;35.40;51.80
23114;DHT22;11726;50.122;8.832;2022-08-25T15:33:12;35.50;50.90
23114;DHT22;11726;50.122;8.832;2022-08-25T15:35:39;35.60;50.60
23114;DHT22;11726;50.122;8.832;2022-08-25T15:38:06;35.50;50.50
23114;DHT22;11726;50.122;8.832;2022-08-25T15:40:34;35.40;50.80
23114;DHT22;11726;50.122;8.832;2022-08-25T15:43:03;35.40;49.90
23114;DHT22;11726;50.122;8.832;2022-08-25T15:45:29;35.60;49.00
23114;DHT22;11726;50.122;8.832;2022-08-25T15:47:56;35.40;49.60
23114;DHT22;11726;50.122;8.832;2022-08-25T15:50:23;35.00;49.80
23114;DHT22;11726;50.122;8.832;2022-08-25T15:52:52;35.20;50.10
23114;DHT22;11726;50.122;8.832;2022-08-25T15:55:19;35.10;49.70
23114;DHT22;11726;50.122;8.832;2022-08-25T15:57:47;34.90;49.70
23114;DHT22;11726;50.122;8.832;2022-08-25T16:00:16;34.90;49.80
23114;DHT22;11726;50.122;8.832;2022-08-25T16:02:43;34.90;49.90
23114;DHT22;11726;50.122;8.832;2022-08-25T16:05:12;35.00;49.20
23114;DHT22;11726;50.122;8.832;2022-08-25T16:07:39;34.60;49.40
23114;DHT22;11726;50.122;8.832;2022-08-25T16:10:07;34.40;49.60
23114;DHT22;11726;50.122;8.832;2022-08-25T16:12:33;33.90;50.60
23114;DHT22;11726;50.122;8.832;2022-08-25T16:15:01;33.60;50.70
23114;DHT22;11726;50.122;8.832;2022-08-25T16:17:28;33.70;50.80
23114;DHT22;11726;50.122;8.832;2022-08-25T16:19:55;33.50;50.90
23114;DHT22;11726;50.122;8.832;2022-08-25T16:22:21;33.60;50.90
23114;DHT22;11726;50.122;8.832;2022-08-25T16:24:51;33.30;50.90
23114;DHT22;11726;50.122;8.832;2022-08-25T16:27:18;33.20;51.50
23114;DHT22;11726;50.122;8.832;2022-08-25T16:29:45;32.90;52.60
23114;DHT22;11726;50.122;8.832;2022-08-25T16:32:13;32.80;52.40
23114;DHT22;11726;50.122;8.832;2022-08-25T16:34:42;32.60;52.50
23114;DHT22;11726;50.122;8.832;2022-08-25T16:37:10;32.30;53.00
23114;DHT22;11726;50.122;8.832;2022-08-25T16:39:36;32.40;53.30
23114;DHT22;11726;50.122;8.832;2022-08-25T16:42:06;32.20;53.30
23114;DHT22;11726;50.122;8.832;2022-08-25T16:44:33;32.10;53.50
23114;DHT22;11726;50.122;8.832;2022-08-25T16:47:00;31.90;54.20
23114;DHT22;11726;50.122;8.832;2022-08-25T16:49:26;31.70;54.30
23114;DHT22;11726;50.122;8.832;2022-08-25T16:51:53;31.60;54.30
23114;DHT22;11726;50.122;8.832;2022-08-25T16:54:23;31.60;54.20
23114;DHT22;11726;50.122;8.832;2022-08-25T16:57:08;31.70;54.30
23114;DHT22;11726;50.122;8.832;2022-08-25T16:59:35;31.60;54.50
23114;DHT22;11726;50.122;8.832;2022-08-25T17:02:02;31.30;55.20
23114;DHT22;11726;50.122;8.832;2022-08-25T17:04:30;31.30;55.40
23114;DHT22;11726;50.122;8.832;2022-08-25T17:06:58;31.30;55.70
23114;DHT22;11726;50.122;8.832;2022-08-25T17:09:25;31.10;56.20
23114;DHT22;11726;50.122;8.832;2022-08-25T17:11:51;31.00;56.50
23114;DHT22;11726;50.122;8.832;2022-08-25T17:14:21;30.80;57.00
23114;DHT22;11726;50.122;8.832;2022-08-25T17:16:49;30.90;57.00
23114;DHT22;11726;50.122;8.832;2022-08-25T17:19:19;30.80;57.40
23114;DHT22;11726;50.122;8.832;2022-08-25T17:21:49;30.60;58.00
23114;DHT22;11726;50.122;8.832;2022-08-25T17:24:17;30.60;58.40
23114;DHT22;11726;50.122;8.832;2022-08-25T17:26:45;30.50;58.20
23114;DHT22;11726;50.122;8.832;2022-08-25T17:29:15;30.40;58.50